Time;durP1;ratioP1;P1;durP2;ratioP2;P2;SDS_P1;SDS_P2;PMS_P1;PMS_P2;Temp;Humidity;BMP_temperature;BMP_pressure;BME280_temperature;BME280_humidity;BME280_pressure;Samples;Min_cycle;Max_cycle;Signal;HPM_P1;HPM_P2
2021/01/10 00:00:53;;;;;;;9.55;4.57;;;0.50;67.30;;;;;;2264035;56;21025;-68
2021/01/10 00:03:19;;;;;;;10.38;4.18;;;0.50;67.30;;;;;;2479825;55;21026;-67
2021/01/10 00:05:46;;;;;;;13.20;4.80;;;0.40;67.10;;;;;;2259268;56;21060;-67
2021/01/10 00:08:12;;;;;;;11.57;5.10;;;0.40;67.10;;;;;;2266368;56;20918;-67
2021/01/10 00:10:38;;;;;;;11.07;4.55;;;0.40;67.10;;;;;;2265445;56;21398;-67
2021/01/10 00:13:07;;;;;;;12.68;4.80;;;0.40;67.10;;;;;;2260008;56;21524;-67
2021/01/10 00:15:34;;;;;;;9.52;4.15;;;0.40;67.10;;;;;;2484913;55;20969;-68
2021/01/10 00:18:00;;;;;;;9.50;4.22;;;0.40;67.10;;;;;;2259174;56;20992;-67
2021/01/10 00:20:27;;;;;;;9.27;3.47;;;0.40;67.20;;;;;;2257485;56;20972;-69
2021/01/10 00:22:54;;;;;;;8.65;3.80;;;0.40;67.20;;;;;;2254331;56;21843;-68
2021/01/10 00:25:21;;;;;;;8.88;4.18;;;0.40;67.40;;;;;;2480712;55;20941;-68
2021/01/10 00:27:48;;;;;;;10.38;5.15;;;0.40;67.40;;;;;;2251819;56;21041;-68
2021/01/10 00:30:16;;;;;;;9.13;4.43;;;0.40;67.50;;;;;;2470979;55;20917;-68
2021/01/10 00:32:52;;;;;;;9.70;4.30;;;0.40;67.70;;;;;;2470714;55;21044;-68
2021/01/10 00:35:22;;;;;;;11.48;4.80;;;0.20;67.50;;;;;;2230780;56;21050;-68
2021/01/10 00:37:51;;;;;;;10.00;4.65;;;0.40;67.80;;;;;;2465041;55;20973;-68
2021/01/10 00:40:18;;;;;;;9.77;4.12;;;0.40;67.80;;;;;;2488774;55;21019;-68
2021/01/10 00:42:48;;;;;;;9.65;4.65;;;0.40;68.10;;;;;;2472606;55;20989;-68
2021/01/10 00:45:15;;;;;;;8.80;4.20;;;0.50;69.10;;;;;;2245917;56;21025;-68
2021/01/10 00:47:43;;;;;;;9.48;4.10;;;0.50;69.40;;;;;;2474260;55;20961;-68
2021/01/10 00:50:11;;;;;;;9.40;4.55;;;0.60;69.80;;;;;;2246486;56;20965;-67
2021/01/10 00:52:38;;;;;;;11.00;4.43;;;0.60;70.10;;;;;;2481629;55;21869;-68
2021/01/10 00:55:05;;;;;;;9.25;4.07;;;0.70;70.40;;;;;;2475774;55;21465;-68
2021/01/10 00:57:32;;;;;;;10.35;5.05;;;0.70;70.40;;;;;;2253074;56;20929;-68
2021/01/10 00:59:59;;;;;;;10.07;4.20;;;0.80;70.50;;;;;;2485519;55;21019;-68
2021/01/10 01:02:28;;;;;;;10.93;3.78;;;0.80;70.40;;;;;;2482423;55;20975;-68
2021/01/10 01:04:54;;;;;;;9.63;4.40;;;0.90;70.40;;;;;;2465705;55;20945;-68
2021/01/10 01:07:21;;;;;;;8.93;3.85;;;0.90;70.30;;;;;;2259661;56;20953;-67
2021/01/10 01:09:47;;;;;;;9.30;4.18;;;0.90;70.10;;;;;;2259558;56;20977;-67
2021/01/10 01:12:22;;;;;;;7.05;3.17;;;0.90;70.00;;;;;;2257006;56;20990;-68
2021/01/10 01:14:48;;;;;;;10.45;4.37;;;1.00;69.80;;;;;;2475942;55;20969;-68
2021/01/10 01:17:14;;;;;;;6.57;3.42;;;1.00;69.60;;;;;;2479563;55;21024;-68
2021/01/10 01:20:08;;;;;;;7.15;3.53;;;1.00;69.50;;;;;;2477161;55;21084;-68
2021/01/10 01:22:34;;;;;;;8.00;3.90;;;1.00;69.20;;;;;;2482755;55;21724;-68
2021/01/10 01:25:02;;;;;;;8.52;3.83;;;1.00;69.00;;;;;;2481991;55;20997;-68
2021/01/10 01:27:28;;;;;;;7.62;3.62;;;1.00;68.90;;;;;;2477216;55;20976;-68
2021/01/10 01:29:57;;;;;;;10.20;4.20;;;1.00;68.80;;;;;;2478564;55;20952;-68
2021/01/10 01:32:23;;;;;;;7.40;3.55;;;1.00;68.70;;;;;;2482021;55;20989;-68
2021/01/10 01:34:49;;;;;;;8.57;3.30;;;1.00;68.50;;;;;;2483305;55;21029;-68
2021/01/10 01:37:16;;;;;;;6.35;2.95;;;0.90;68.30;;;;;;2481321;55;21918;-68
2021/01/10 01:39:44;;;;;;;9.35;3.83;;;0.90;68.20;;;;;;2479625;55;20997;-67
2021/01/10 01:42:14;;;;;;;7.40;3.47;;;0.90;68.10;;;;;;2257317;56;20929;-68
2021/01/10 01:44:40;;;;;;;8.32;3.62;;;0.90;67.90;;;;;;2485605;55;20937;-68
2021/01/10 01:47:07;;;;;;;10.13;4.30;;;0.90;67.80;;;;;;2258164;56;20981;-68
2021/01/10 01:49:33;;;;;;;8.35;4.07;;;0.90;67.70;;;;;;2258194;56;20937;-68
2021/01/10 01:52:00;;;;;;;9.10;3.80;;;0.90;67.80;;;;;;2259827;56;21017;-68
2021/01/10 01:54:29;;;;;;;10.13;3.75;;;1.00;67.90;;;;;;2259608;56;20948;-67
2021/01/10 01:56:55;;;;;;;8.32;3.97;;;0.90;67.90;;;;;;2487442;55;21462;-68
2021/01/10 01:59:21;;;;;;;7.85;3.65;;;0.90;68.10;;;;;;2259636;56;20996;-68
2021/01/10 02:01:47;;;;;;;9.15;3.72;;;0.90;68.30;;;;;;2258276;56;20969;-68
2021/01/10 02:05:16;;;;;;;7.10;3.22;;;0.90;68.50;;;;;;2259601;56;20973;-68
2021/01/10 02:07:55;;;;;;;8.23;3.58;;;0.90;68.20;;;;;;2257276;56;21843;-68
2021/01/10 02:10:29;;;;;;;8.18;3.50;;;0.90;68.50;;;;;;2257843;56;21790;-68
2021/01/10 02:13:00;;;;;;;10.20;3.85;;;1.00;68.50;;;;;;2256991;56;21450;-68
2021/01/10 02:15:29;;;;;;;10.73;4.40;;;1.00;68.50;;;;;;2480044;55;20925;-68
2021/01/10 02:17:56;;;;;;;7.85;3.62;;;1.00;68.40;;;;;;2253350;56;21366;-67
2021/01/10 02:20:26;;;;;;;8.27;4.10;;;1.00;68.40;;;;;;2251379;56;20960;-68
2021/01/10 02:23:01;;;;;;;8.48;3.90;;;1.00;68.20;;;;;;2480872;55;20997;-68
2021/01/10 02:25:27;;;;;;;8.15;3.67;;;1.00;68.00;;;;;;2479422;55;20921;-68
2021/01/10 02:27:54;;;;;;;7.78;3.90;;;1.00;68.00;;;;;;2255498;56;21024;-68
2021/01/10 02:30:21;;;;;;;7.93;3.80;;;1.00;68.00;;;;;;2474602;55;21581;-68
2021/01/10 02:32:48;;;;;;;8.77;3.72;;;1.00;68.00;;;;;;2249928;56;20964;-68
2021/01/10 02:35:15;;;;;;;7.80;3.37;;;1.00;68.00;;;;;;2245930;56;21476;-69
2021/01/10 02:39:11;;;;;;;6.97;3.28;;;1.10;68.10;;;;;;2253801;56;20909;-68
2021/01/10 02:41:49;;;;;;;7.28;3.50;;;1.10;68.20;;;;;;2473961;55;20957;-68
2021/01/10 02:44:24;;;;;;;7.50;3.60;;;1.10;68.20;;;;;;2475446;55;21001;-68
2021/01/10 02:46:51;;;;;;;7.15;3.15;;;1.10;68.40;;;;;;2476939;55;21044;-68
2021/01/10 02:49:18;;;;;;;7.80;3.70;;;1.20;68.60;;;;;;2475222;55;21773;-68
2021/01/10 02:51:46;;;;;;;8.73;3.60;;;1.20;68.60;;;;;;2474645;55;21932;-68
2021/01/10 02:54:12;;;;;;;8.15;3.53;;;1.20;68.60;;;;;;2245237;56;21017;-68
2021/01/10 02:56:50;;;;;;;8.68;4.05;;;1.30;68.70;;;;;;2248745;56;21014;-69
2021/01/10 02:59:22;;;;;;;8.98;3.92;;;1.30;68.80;;;;;;2253515;56;20957;-68
2021/01/10 03:01:48;;;;;;;7.62;3.80;;;1.30;68.80;;;;;;2252081;56;21406;-68
2021/01/10 03:04:14;;;;;;;10.05;4.40;;;1.40;68.90;;;;;;2255331;56;21164;-68
2021/01/10 03:06:42;;;;;;;8.82;3.72;;;1.40;69.00;;;;;;2475563;55;21559;-69
2021/01/10 03:09:08;;;;;;;8.32;3.45;;;1.40;69.00;;;;;;2253285;56;20932;-68
2021/01/10 03:11:35;;;;;;;8.40;3.80;;;1.50;69.10;;;;;;2254735;56;20937;-68
2021/01/10 03:14:38;;;;;;;7.28;3.42;;;1.50;69.00;;;;;;2249617;56;20973;-68
2021/01/10 03:17:07;;;;;;;8.68;3.72;;;1.60;69.00;;;;;;2485440;55;21300;-68
2021/01/10 03:19:33;;;;;;;9.27;4.00;;;1.60;69.00;;;;;;2483226;55;20980;-69
2021/01/10 03:22:00;;;;;;;8.00;3.78;;;1.60;69.00;;;;;;2261359;56;20997;-68
2021/01/10 03:24:26;;;;;;;7.50;3.47;;;1.70;69.10;;;;;;2255539;56;20973;-68
2021/01/10 03:26:53;;;;;;;9.15;3.67;;;1.70;69.10;;;;;;2244749;56;20977;-69
2021/01/10 03:29:20;;;;;;;9.88;4.40;;;1.70;69.10;;;;;;2479814;55;20941;-69
2021/01/10 03:31:46;;;;;;;8.02;3.42;;;1.70;68.90;;;;;;2478705;55;20965;-68
2021/01/10 03:34:12;;;;;;;8.40;3.80;;;1.80;69.00;;;;;;2483543;55;20957;-68
2021/01/10 03:36:39;;;;;;;9.18;4.25;;;1.80;69.00;;;;;;2256748;56;20997;-68
2021/01/10 03:39:05;;;;;;;7.00;3.50;;;1.80;68.90;;;;;;2480052;55;21399;-68
2021/01/10 03:41:31;;;;;;;8.13;3.75;;;1.90;68.90;;;;;;2481535;55;20948;-69
2021/01/10 03:43:59;;;;;;;8.23;3.42;;;1.90;69.00;;;;;;2256442;56;20957;-69
2021/01/10 03:46:26;;;;;;;9.10;3.83;;;1.90;69.00;;;;;;2255258;56;22334;-69
2021/01/10 03:48:52;;;;;;;7.18;3.50;;;2.00;69.10;;;;;;2479709;55;21025;-68
2021/01/10 03:51:19;;;;;;;6.90;2.95;;;2.00;69.10;;;;;;2477770;55;20972;-68
2021/01/10 03:53:45;;;;;;;8.23;3.20;;;2.00;69.00;;;;;;2251657;56;20923;-68
2021/01/10 03:56:12;;;;;;;7.00;3.20;;;2.10;69.10;;;;;;2257891;56;20961;-69
2021/01/10 03:58:39;;;;;;;5.87;3.08;;;2.10;69.00;;;;;;2250471;56;21032;-69
2021/01/10 04:01:06;;;;;;;7.47;3.80;;;2.10;69.10;;;;;;2481455;55;22031;-69
2021/01/10 04:03:32;;;;;;;8.27;3.62;;;2.10;69.00;;;;;;2252672;56;20944;-68
2021/01/10 04:06:01;;;;;;;7.07;3.40;;;2.20;69.00;;;;;;2481947;55;22013;-68
2021/01/10 04:08:28;;;;;;;7.87;3.50;;;2.20;69.80;;;;;;2478940;55;20953;-69
2021/01/10 04:10:55;;;;;;;7.28;3.53;;;2.20;69.00;;;;;;2245584;56;20932;-69
2021/01/10 04:13:21;;;;;;;8.18;3.75;;;2.20;68.90;;;;;;2258008;56;20969;-69
2021/01/10 04:15:49;;;;;;;9.50;4.00;;;2.20;68.70;;;;;;2261404;56;21583;-69
2021/01/10 04:18:43;;;;;;;6.25;2.97;;;2.30;68.70;;;;;;2259847;56;21689;-69
2021/01/10 04:21:10;;;;;;;7.35;3.53;;;2.30;68.50;;;;;;2252735;56;20957;-69
2021/01/10 04:23:36;;;;;;;7.18;3.60;;;2.30;68.60;;;;;;2258774;56;21425;-68
2021/01/10 04:26:03;;;;;;;8.52;4.07;;;2.30;68.60;;;;;;2480680;55;20936;-68
2021/01/10 04:28:29;;;;;;;6.35;3.10;;;2.30;68.60;;;;;;2248845;56;21025;-69
2021/01/10 04:30:56;;;;;;;6.40;3.10;;;2.30;68.60;;;;;;2253747;56;21036;-68
2021/01/10 04:33:26;;;;;;;8.18;3.90;;;2.30;68.60;;;;;;2257590;56;20944;-68
2021/01/10 04:35:53;;;;;;;8.40;3.30;;;2.40;68.70;;;;;;2479725;55;21068;-69
2021/01/10 04:38:19;;;;;;;6.82;3.25;;;2.40;68.60;;;;;;2253922;56;20976;-69
2021/01/10 04:40:45;;;;;;;7.22;3.65;;;2.40;68.50;;;;;;2255598;56;21341;-69
2021/01/10 04:43:12;;;;;;;7.30;3.35;;;2.40;68.30;;;;;;2482199;55;20946;-69
2021/01/10 04:45:39;;;;;;;6.87;3.50;;;2.40;68.40;;;;;;2254883;56;20933;-68
2021/01/10 04:48:07;;;;;;;7.85;3.70;;;2.40;68.40;;;;;;2255465;56;21021;-69
2021/01/10 04:50:34;;;;;;;9.35;4.30;;;2.40;68.40;;;;;;2477199;55;21000;-68
2021/01/10 04:53:01;;;;;;;10.15;4.12;;;2.40;68.30;;;;;;2257068;56;20976;-68
2021/01/10 04:55:30;;;;;;;9.07;3.80;;;2.40;68.30;;;;;;2255897;56;21028;-68
2021/01/10 04:58:04;;;;;;;7.35;3.42;;;2.40;68.20;;;;;;2452679;55;21093;-68
2021/01/10 05:00:31;;;;;;;8.85;4.10;;;2.40;68.20;;;;;;2256116;56;20972;-68
2021/01/10 05:03:16;;;;;;;9.18;3.67;;;2.40;68.20;;;;;;2483821;55;20993;-68
2021/01/10 05:05:42;;;;;;;8.77;4.20;;;2.40;68.10;;;;;;2485805;55;21005;-69
2021/01/10 05:08:09;;;;;;;7.25;3.67;;;2.40;68.10;;;;;;2485131;55;20966;-69
2021/01/10 05:10:39;;;;;;;8.98;4.20;;;2.40;68.10;;;;;;2258060;56;20965;-68
2021/01/10 05:13:05;;;;;;;8.35;3.92;;;2.40;68.00;;;;;;2481057;55;20961;-68
2021/01/10 05:15:34;;;;;;;9.38;4.05;;;2.40;67.90;;;;;;2486722;55;20953;-68
2021/01/10 05:18:00;;;;;;;8.10;4.28;;;2.40;67.90;;;;;;2488171;55;21481;-68
2021/01/10 05:20:27;;;;;;;8.77;4.30;;;2.40;67.80;;;;;;2260057;56;20969;-68
2021/01/10 05:22:54;;;;;;;8.63;4.10;;;2.40;67.80;;;;;;2488397;55;20926;-69
2021/01/10 05:25:21;;;;;;;9.60;4.47;;;2.40;67.70;;;;;;2254107;56;20994;-68
2021/01/10 05:27:52;;;;;;;9.68;4.22;;;2.40;67.80;;;;;;2487974;55;20969;-69
2021/01/10 05:30:37;;;;;;;7.20;3.62;;;2.40;67.90;;;;;;2488320;55;21045;-69
2021/01/10 05:33:07;;;;;;;7.78;3.83;;;2.40;67.80;;;;;;2262543;56;21017;-68
2021/01/10 05:35:55;;;;;;;10.02;4.30;;;2.40;67.90;;;;;;2482721;55;20961;-68
2021/01/10 05:38:34;;;;;;;8.82;4.15;;;2.40;67.80;;;;;;2487360;55;21007;-68
2021/01/10 05:41:01;;;;;;;8.27;3.83;;;2.40;67.90;;;;;;2489025;55;20921;-69
2021/01/10 05:43:30;;;;;;;9.30;3.78;;;2.30;67.80;;;;;;2486877;55;21884;-68
2021/01/10 05:45:58;;;;;;;8.07;3.58;;;2.40;68.00;;;;;;2484628;55;21013;-69
2021/01/10 05:48:26;;;;;;;8.63;3.72;;;2.30;67.90;;;;;;2485379;55;20992;-68
2021/01/10 05:50:53;;;;;;;9.40;3.97;;;2.40;67.90;;;;;;2485242;55;20985;-68
2021/01/10 05:53:25;;;;;;;8.38;3.65;;;2.40;67.90;;;;;;2260063;56;20957;-69
2021/01/10 05:55:56;;;;;;;7.90;3.80;;;2.40;67.70;;;;;;2483478;55;20954;-68
2021/01/10 05:58:23;;;;;;;6.90;3.35;;;2.30;67.60;;;;;;2257075;56;20961;-69
2021/01/10 06:00:52;;;;;;;8.40;3.70;;;2.30;67.50;;;;;;2259070;56;21096;-68
2021/01/10 06:03:23;;;;;;;7.87;3.70;;;2.30;67.40;;;;;;2258819;56;20952;-68
2021/01/10 06:05:54;;;;;;;8.17;4.03;;;2.30;67.50;;;;;;2484098;55;22054;-68
2021/01/10 06:08:28;;;;;;;7.05;3.70;;;2.30;67.50;;;;;;2255421;56;21065;-68
2021/01/10 06:10:54;;;;;;;7.72;3.87;;;2.30;67.40;;;;;;2481772;55;21791;-68
2021/01/10 06:13:20;;;;;;;8.27;4.20;;;2.30;67.50;;;;;;2479025;55;20957;-68
2021/01/10 06:15:48;;;;;;;7.65;3.78;;;2.30;67.40;;;;;;2254534;56;20989;-68
2021/01/10 06:18:20;;;;;;;7.60;3.65;;;2.30;67.40;;;;;;2480235;55;21025;-68
2021/01/10 06:20:48;;;;;;;6.32;2.72;;;2.20;67.10;;;;;;2482934;55;20993;-69
2021/01/10 06:23:17;;;;;;;7.12;3.33;;;2.20;67.10;;;;;;2482492;55;21445;-68
2021/01/10 06:25:43;;;;;;;7.75;3.40;;;2.20;67.00;;;;;;2256063;56;20949;-68
2021/01/10 06:28:15;;;;;;;8.05;3.78;;;2.20;66.90;;;;;;2480719;55;21005;-68
2021/01/10 06:30:54;;;;;;;6.53;3.65;;;2.20;66.70;;;;;;2453599;55;21080;-67
2021/01/10 06:33:28;;;;;;;9.80;3.87;;;2.10;66.40;;;;;;2480951;55;21001;-68
2021/01/10 06:35:54;;;;;;;9.52;4.43;;;2.10;66.40;;;;;;2485167;55;21012;-68
2021/01/10 06:38:22;;;;;;;7.07;3.25;;;2.00;66.30;;;;;;2481915;55;21322;-68
2021/01/10 06:41:00;;;;;;;6.53;3.17;;;2.00;66.40;;;;;;2484178;55;20957;-68
2021/01/10 06:43:26;;;;;;;7.82;3.67;;;2.00;66.40;;;;;;2485749;55;21308;-69
2021/01/10 06:45:53;;;;;;;8.45;4.03;;;1.90;66.40;;;;;;2485422;55;20868;-67
2021/01/10 06:48:28;;;;;;;8.00;3.67;;;1.90;66.40;;;;;;2483393;55;21073;-67
2021/01/10 06:50:55;;;;;;;9.98;4.50;;;1.90;66.40;;;;;;2482445;55;21029;-68
2021/01/10 06:53:23;;;;;;;8.05;3.78;;;1.80;66.40;;;;;;2487829;55;20933;-68
2021/01/10 06:55:49;;;;;;;7.80;3.72;;;1.80;66.50;;;;;;2480262;55;20996;-68
2021/01/10 06:58:16;;;;;;;7.82;4.07;;;1.80;66.60;;;;;;2483429;55;20928;-68
2021/01/10 07:01:18;;;;;;;7.82;3.85;;;1.80;66.60;;;;;;2259901;56;21069;-68
2021/01/10 07:03:57;;;;;;;8.30;3.90;;;1.80;66.50;;;;;;2259228;56;20941;-68
2021/01/10 07:06:23;;;;;;;6.53;3.30;;;1.80;66.80;;;;;;2487462;55;20969;-68
2021/01/10 07:08:55;;;;;;;8.70;3.97;;;1.80;67.00;;;;;;2482210;55;20969;-69
2021/01/10 07:11:41;;;;;;;10.00;4.78;;;1.80;67.00;;;;;;2483702;55;21016;-68
2021/01/10 07:14:41;;;;;;;8.55;3.42;;;1.80;67.00;;;;;;2261078;56;21051;-68
2021/01/10 07:17:10;;;;;;;8.18;3.83;;;1.80;67.00;;;;;;2486244;55;20917;-69
2021/01/10 07:19:41;;;;;;;8.68;4.15;;;1.80;67.30;;;;;;2485722;55;20937;-69
2021/01/10 07:22:28;;;;;;;9.85;4.40;;;1.80;67.40;;;;;;2257842;56;20985;-69
2021/01/10 07:24:54;;;;;;;9.10;4.20;;;1.80;67.40;;;;;;2481552;55;21486;-68
2021/01/10 07:27:35;;;;;;;8.73;4.50;;;1.80;67.50;;;;;;2256184;56;20965;-69
2021/01/10 07:30:24;;;;;;;7.50;3.87;;;1.80;67.40;;;;;;2481729;55;21379;-68
2021/01/10 07:32:50;;;;;;;9.60;4.82;;;1.90;67.50;;;;;;2485813;55;20933;-69
2021/01/10 07:35:17;;;;;;;10.32;4.87;;;1.80;67.60;;;;;;2256136;56;20969;-68
2021/01/10 07:37:45;;;;;;;9.95;4.93;;;1.80;67.70;;;;;;2256080;56;21775;-68
2021/01/10 07:40:20;;;;;;;8.25;4.37;;;1.90;67.80;;;;;;2254051;56;21419;-69
2021/01/10 07:42:59;;;;;;;10.77;4.62;;;1.90;67.80;;;;;;2258971;56;20956;-69
2021/01/10 07:45:38;;;;;;;11.25;4.68;;;1.90;67.80;;;;;;2255931;56;20970;-68
2021/01/10 07:48:06;;;;;;;9.52;5.00;;;1.90;68.50;;;;;;2482211;55;21093;-68
2021/01/10 07:50:32;;;;;;;10.35;4.78;;;2.00;68.00;;;;;;2252720;56;20917;-69
2021/01/10 07:52:59;;;;;;;9.80;4.50;;;2.00;67.90;;;;;;2259277;56;21624;-69
2021/01/10 07:55:27;;;;;;;8.43;4.53;;;2.00;67.80;;;;;;2477269;55;21001;-68
2021/01/10 07:59:16;;;;;;;9.90;4.72;;;2.00;67.80;;;;;;2484292;55;20984;-69
2021/01/10 08:02:00;;;;;;;9.50;3.85;;;2.00;67.60;;;;;;2490567;55;20949;-68
2021/01/10 08:04:33;;;;;;;8.95;4.00;;;2.00;67.40;;;;;;2488136;55;21054;-68
2021/01/10 08:07:00;;;;;;;8.27;3.87;;;2.00;67.30;;;;;;2262806;56;21016;-68
2021/01/10 08:09:32;;;;;;;7.18;3.53;;;2.00;67.50;;;;;;2258695;56;20961;-69
2021/01/10 08:12:09;;;;;;;7.43;3.78;;;2.00;67.50;;;;;;2489276;55;21096;-68
2021/01/10 08:14:36;;;;;;;8.68;4.15;;;2.00;67.50;;;;;;2488993;55;20974;-69
2021/01/10 08:17:04;;;;;;;9.77;4.50;;;1.90;67.60;;;;;;2261256;56;20972;-68
2021/01/10 08:19:35;;;;;;;7.22;3.55;;;2.00;67.80;;;;;;2489797;55;21072;-69
2021/01/10 08:22:03;;;;;;;;;;;2.00;67.80;;;;;;2265558;56;20991;-69
2021/01/10 08:24:35;;;;;;;7.82;3.58;;;2.10;67.00;;;;;;2483855;55;20406;-68
2021/01/10 08:27:02;;;;;;;8.45;4.35;;;2.10;67.80;;;;;;2484614;55;22016;-69
2021/01/10 08:29:28;;;;;;;8.43;4.05;;;2.10;68.00;;;;;;2485636;55;21547;-69
2021/01/10 08:31:55;;;;;;;9.45;4.28;;;2.10;68.10;;;;;;2261513;56;20984;-68
2021/01/10 08:34:27;;;;;;;8.45;3.92;;;2.10;68.30;;;;;;2481882;55;20937;-69
2021/01/10 08:36:59;;;;;;;7.50;3.30;;;2.20;68.50;;;;;;2488179;55;21521;-69
2021/01/10 08:39:25;;;;;;;9.85;4.35;;;2.20;68.70;;;;;;2264950;55;2637231;-69
2021/01/10 08:41:51;;;;;;;9.02;4.28;;;2.30;68.90;;;;;;2270114;55;20935;-69
2021/01/10 08:44:20;;;;;;;11.60;5.18;;;2.30;68.90;;;;;;2262730;56;21001;-68
2021/01/10 08:46:51;;;;;;;10.95;4.90;;;2.40;69.10;;;;;;2259135;56;21409;-68
2021/01/10 08:49:23;;;;;;;9.57;4.28;;;2.50;69.20;;;;;;2486727;55;20921;-69
2021/01/10 08:51:50;;;;;;;9.02;4.22;;;2.50;69.30;;;;;;2486545;55;20957;-68
2021/01/10 08:54:28;;;;;;;8.52;4.20;;;2.60;69.40;;;;;;2257575;56;21004;-69
2021/01/10 08:56:56;;;;;;;7.95;3.78;;;2.70;69.40;;;;;;2483529;55;20992;-69
2021/01/10 08:59:22;;;;;;;8.15;4.07;;;2.70;69.40;;;;;;2484168;55;21089;-68
2021/01/10 09:01:50;;;;;;;8.35;4.32;;;2.80;69.40;;;;;;2258083;56;21001;-69
2021/01/10 09:04:16;;;;;;;8.20;3.83;;;2.90;69.30;;;;;;2484508;55;20961;-68
2021/01/10 09:07:34;;;;;;;7.95;4.50;;;2.90;69.20;;;;;;2256609;56;21975;-69
2021/01/10 09:10:08;;;;;;;8.40;4.03;;;3.00;68.80;;;;;;2483569;55;20945;-69
2021/01/10 09:12:38;;;;;;;9.60;4.80;;;3.00;68.80;;;;;;2480602;55;21599;-69
2021/01/10 09:15:24;;;;;;;7.43;3.70;;;3.10;68.80;;;;;;2477345;55;21853;-68
2021/01/10 09:17:59;;;;;;;7.87;4.00;;;3.10;68.60;;;;;;2253261;56;20941;-68
2021/01/10 09:20:29;;;;;;;8.25;4.35;;;3.10;68.60;;;;;;2483763;55;20925;-68
2021/01/10 09:22:57;;;;;;;9.98;4.60;;;3.20;68.70;;;;;;2478579;55;20921;-68
2021/01/10 09:25:23;;;;;;;9.68;5.07;;;3.20;68.40;;;;;;2485070;55;20929;-69
2021/01/10 09:28:13;;;;;;;9.93;5.35;;;3.20;68.40;;;;;;2255051;56;20937;-68
2021/01/10 09:30:44;;;;;;;10.43;5.28;;;3.20;68.10;;;;;;2487231;55;20989;-69
2021/01/10 09:33:10;;;;;;;10.65;5.55;;;3.20;68.20;;;;;;2479309;55;21089;-69
2021/01/10 09:35:44;;;;;;;10.85;5.57;;;3.20;68.30;;;;;;2473801;55;21063;-67
2021/01/10 09:38:15;;;;;;;9.50;5.03;;;3.20;68.20;;;;;;2477768;55;21002;-68
2021/01/10 09:41:28;;;;;;;10.43;5.25;;;3.20;68.20;;;;;;2248226;56;21333;-68
2021/01/10 09:44:02;;;;;;;11.82;5.50;;;3.20;67.80;;;;;;2484724;55;20972;-67
2021/01/10 09:46:35;;;;;;;10.75;5.87;;;3.20;68.40;;;;;;2485100;55;20976;-68
2021/01/10 09:49:04;;;;;;;11.75;6.07;;;3.20;68.40;;;;;;2471377;55;21001;-69
2021/01/10 09:51:40;;;;;;;11.00;5.50;;;3.30;68.60;;;;;;2485531;55;20948;-68
2021/01/10 09:54:17;;;;;;;10.65;5.22;;;3.30;68.40;;;;;;2265800;56;20933;-68
2021/01/10 09:56:53;;;;;;;12.15;5.55;;;3.30;68.50;;;;;;2490284;55;20941;-68
2021/01/10 10:01:12;;;;;;;11.77;5.85;;;3.30;68.70;;;;;;2489889;55;20989;-68
2021/01/10 10:03:49;;;;;;;11.05;4.68;;;3.40;67.90;;;;;;2489472;55;21508;-68
2021/01/10 10:06:16;;;;;;;11.82;5.45;;;3.40;68.60;;;;;;2486025;55;21070;-68
2021/01/10 10:08:55;;;;;;;11.20;5.53;;;3.50;68.90;;;;;;2261001;56;20989;-68
2021/01/10 10:11:22;;;;;;;9.95;5.28;;;3.50;68.90;;;;;;2490221;55;20957;-69
2021/01/10 10:13:56;;;;;;;9.45;4.95;;;3.60;69.50;;;;;;2484789;55;20989;-70
2021/01/10 10:16:22;;;;;;;11.65;6.28;;;3.60;69.50;;;;;;2489781;55;21324;-70
2021/01/10 10:18:49;;;;;;;13.05;6.80;;;3.70;69.80;;;;;;2489802;55;20998;-70
2021/01/10 10:21:24;;;;;;;13.75;6.57;;;3.60;69.70;;;;;;2487318;55;20949;-70
2021/01/10 10:23:52;;;;;;;15.45;7.78;;;3.80;70.40;;;;;;2489719;55;20977;-70
2021/01/10 10:26:18;;;;;;;12.32;6.05;;;3.90;69.90;;;;;;2489645;55;20957;-70
2021/01/10 10:28:44;;;;;;;12.45;6.87;;;4.00;69.90;;;;;;2485072;55;20929;-69
2021/01/10 10:31:11;;;;;;;13.68;6.87;;;4.00;69.70;;;;;;2262528;56;21380;-70
2021/01/10 10:33:38;;;;;;;12.45;6.43;;;4.10;69.60;;;;;;2484620;55;20965;-70
2021/01/10 10:36:06;;;;;;;13.38;6.55;;;4.10;69.60;;;;;;2262918;56;21617;-69
2021/01/10 10:38:34;;;;;;;11.82;6.12;;;4.10;69.50;;;;;;2263602;56;21001;-70
2021/01/10 10:41:00;;;;;;;12.45;6.47;;;4.20;69.50;;;;;;2487068;55;21256;-69
2021/01/10 10:43:27;;;;;;;14.15;6.35;;;4.20;69.70;;;;;;2490155;55;21068;-69
2021/01/10 10:45:53;;;;;;;11.38;5.95;;;4.20;69.60;;;;;;2262625;56;21053;-69
2021/01/10 10:48:19;;;;;;;11.12;6.32;;;4.10;69.60;;;;;;2481872;55;21025;-69
2021/01/10 10:50:46;;;;;;;12.95;6.95;;;4.30;70.00;;;;;;2262960;56;21053;-70
2021/01/10 10:53:13;;;;;;;11.25;6.45;;;4.30;70.30;;;;;;2256303;56;20960;-69
2021/01/10 10:55:42;;;;;;;13.00;6.60;;;4.40;71.50;;;;;;2258353;56;20961;-69
2021/01/10 10:58:12;;;;;;;12.18;6.47;;;4.60;73.20;;;;;;2482296;55;20930;-68
2021/01/10 11:00:40;;;;;;;11.35;6.30;;;4.80;75.20;;;;;;2484640;55;21021;-68
2021/01/10 11:03:09;;;;;;;11.05;5.97;;;5.20;77.10;;;;;;2486129;55;21232;-69
2021/01/10 11:05:35;;;;;;;8.70;4.82;;;5.60;78.20;;;;;;2487451;55;21065;-68
2021/01/10 11:08:02;;;;;;;9.60;5.60;;;5.90;78.80;;;;;;2260929;56;20973;-68
2021/01/10 11:10:28;;;;;;;10.38;5.60;;;6.40;79.40;;;;;;2265979;56;20984;-69
2021/01/10 11:12:55;;;;;;;9.68;5.37;;;6.80;79.50;;;;;;2482853;55;20973;-70
2021/01/10 11:15:21;;;;;;;7.68;4.70;;;7.20;79.10;;;;;;2486431;55;21219;-69
2021/01/10 11:17:48;;;;;;;8.60;5.03;;;7.50;78.20;;;;;;2486945;55;21053;-69
2021/01/10 11:20:15;;;;;;;8.07;5.10;;;7.80;77.40;;;;;;2484950;55;20965;-69
2021/01/10 11:22:50;;;;;;;8.20;5.07;;;8.20;76.40;;;;;;2486751;55;20957;-69
2021/01/10 11:25:16;;;;;;;7.30;4.47;;;8.40;75.00;;;;;;2479374;55;20917;-70
2021/01/10 11:27:43;;;;;;;6.37;4.12;;;8.60;73.20;;;;;;2478561;55;21017;-70
2021/01/10 11:33:38;;;;;;;6.10;3.87;;;8.70;69.00;;;;;;2248077;56;21017;-68
2021/01/10 11:36:08;;;;;;;6.57;4.03;;;8.70;69.40;;;;;;2486129;55;21493;-69
2021/01/10 11:38:35;;;;;;;6.62;3.90;;;8.60;68.60;;;;;;2483943;55;21101;-69
2021/01/10 11:41:11;;;;;;;6.87;3.97;;;8.50;67.60;;;;;;2258535;56;21068;-69
2021/01/10 11:43:38;;;;;;;5.93;3.37;;;8.40;66.80;;;;;;2490782;55;21016;-69
2021/01/10 11:46:04;;;;;;;5.80;3.42;;;8.20;67.20;;;;;;2486143;55;21020;-69
2021/01/10 11:48:31;;;;;;;4.53;2.60;;;8.10;67.50;;;;;;2251449;56;21810;-69
2021/01/10 11:51:00;;;;;;;5.37;2.55;;;8.00;67.30;;;;;;2489863;55;20969;-69
2021/01/10 11:53:29;;;;;;;4.90;2.70;;;7.90;67.10;;;;;;2488700;55;21652;-69
2021/01/10 11:55:57;;;;;;;4.75;2.30;;;7.90;67.50;;;;;;2257728;56;21097;-69
2021/01/10 11:58:28;;;;;;;4.20;2.42;;;7.80;68.10;;;;;;2265481;56;21869;-67
2021/01/10 12:00:54;;;;;;;4.43;2.35;;;7.90;68.80;;;;;;2480826;55;20921;-68
2021/01/10 12:03:21;;;;;;;4.90;2.67;;;7.90;68.90;;;;;;2487957;55;20993;-69
2021/01/10 12:05:48;;;;;;;5.10;2.70;;;7.90;69.10;;;;;;2486584;55;21001;-69
2021/01/10 12:08:16;;;;;;;4.90;2.87;;;8.00;69.00;;;;;;2484621;55;20975;-69
2021/01/10 12:10:47;;;;;;;4.28;2.10;;;8.00;68.90;;;;;;2250713;56;20912;-69
2021/01/10 12:13:14;;;;;;;5.18;2.90;;;8.10;69.10;;;;;;2262897;56;20936;-68
2021/01/10 12:15:40;;;;;;;4.40;2.40;;;8.10;68.60;;;;;;2260972;56;20933;-69
2021/01/10 12:18:07;;;;;;;4.00;2.15;;;8.20;68.40;;;;;;2487865;55;20964;-69
2021/01/10 12:20:34;;;;;;;4.82;2.22;;;8.20;67.80;;;;;;2488925;55;21032;-69
2021/01/10 12:23:02;;;;;;;5.00;2.42;;;8.10;67.50;;;;;;2490449;55;21081;-69
2021/01/10 12:25:28;;;;;;;5.62;2.70;;;8.20;67.70;;;;;;2490871;55;21521;-69
2021/01/10 12:28:01;;;;;;;3.47;2.22;;;8.20;68.20;;;;;;2490186;55;20949;-69
2021/01/10 12:30:27;;;;;;;3.78;2.17;;;8.20;68.50;;;;;;2484436;55;20984;-69
2021/01/10 12:33:00;;;;;;;4.35;2.30;;;8.20;68.20;;;;;;2484210;55;20925;-69
2021/01/10 12:35:26;;;;;;;4.55;2.45;;;8.30;68.00;;;;;;2487217;55;21017;-70
2021/01/10 12:37:53;;;;;;;4.62;2.40;;;8.30;67.60;;;;;;2490682;55;20929;-68
2021/01/10 12:40:20;;;;;;;4.12;2.30;;;8.30;67.90;;;;;;2485587;55;20933;-70
2021/01/10 12:42:48;;;;;;;4.80;2.78;;;8.40;68.20;;;;;;2491342;55;20962;-70
2021/01/10 12:45:15;;;;;;;5.82;3.37;;;8.40;68.30;;;;;;2485565;55;20948;-70
2021/01/10 12:47:42;;;;;;;5.10;2.95;;;8.50;67.80;;;;;;2491765;55;21797;-70
2021/01/10 12:50:10;;;;;;;4.85;2.70;;;8.50;67.80;;;;;;2261850;56;20929;-70
2021/01/10 12:52:40;;;;;;;4.28;2.53;;;8.50;68.00;;;;;;2486858;55;21005;-70
2021/01/10 12:55:14;;;;;;;4.60;2.75;;;8.50;68.00;;;;;;2262049;56;20965;-70
2021/01/10 12:57:40;;;;;;;4.87;2.53;;;8.60;67.90;;;;;;2487483;55;20997;-70
2021/01/10 13:00:08;;;;;;;5.07;2.80;;;8.70;68.20;;;;;;2490575;55;21478;-71
2021/01/10 13:03:20;;;;;;;4.68;2.67;;;8.70;67.80;;;;;;2484506;55;21005;-70
2021/01/10 13:05:46;;;;;;;4.37;2.42;;;8.80;66.50;;;;;;2490837;55;21174;-70
2021/01/10 13:08:14;;;;;;;4.95;2.67;;;8.80;67.30;;;;;;2486642;55;20946;-71
2021/01/10 13:10:41;;;;;;;4.70;2.67;;;8.80;67.00;;;;;;2259476;56;20949;-70
2021/01/10 13:13:07;;;;;;;4.55;2.55;;;8.80;67.00;;;;;;2487308;55;21296;-71
2021/01/10 13:15:34;;;;;;;4.93;2.75;;;8.90;67.00;;;;;;2489135;55;20969;-71
2021/01/10 13:18:00;;;;;;;4.55;2.37;;;8.90;66.40;;;;;;2486625;55;21532;-71